Have a Safe July 4th! 

Flight Track Log - Related Links

Times and Time Zones

All times are in EDT time to prevent confusion due to time zone crossing. See the CTL22 flight status page for this flight to view local times or setup timezone preferences in your user account.

Time Position Orientation Groundspeed Altitude Reporting Facility
EDT Latitude Longitude Course Direction KTS MPH feet Rate Location/Type
Fri 08:19:10 PM 42.1972 -85.3917 115° Southeast 152 175 4,300  Level Chicago Center
Fri 08:20:12 PM 42.1753 -85.3403 120° Southeast 156 180 5,100 629 Climbing Chicago Center
Fri 08:21:14 PM 42.1536 -85.2867 119° Southeast 161 185 5,600 484 Climbing Chicago Center
Fri 08:22:00 PM 42.1696 -85.1668 103° East  Level Estimated
Fri 08:22:16 PM 42.1347 -85.2306 114° Southeast 163 188 6,100  Level Chicago Center
Fri 08:23:00 PM 42.1586 -85.1027 103° East  Level Estimated
Fri 08:23:18 PM 42.1169 -85.1733 113° Southeast 165 190 6,500  Level Chicago Center
Fri 08:24:20 PM 42.0933 -85.1031 114° Southeast 170 196 6,700 145 Climbing Chicago Center
Fri 08:25:22 PM 42.0719 -85.0397 114° Southeast 181 208 6,800 194 Climbing Chicago Center
Fri 08:26:24 PM 42.0478 -84.9817 119° Southeast 179 206 7,100 194 Climbing Chicago Center
Fri 08:27:26 PM 42.0222 -84.9244 121° Southeast 178 205 7,200 -48 Climbing Chicago Center
Fri 08:28:28 PM 41.9933 -84.8647 123° Southeast 185 213 7,000 -48 Descending Chicago Center
Fri 08:29:30 PM 41.9633 -84.8058 124° Southeast 189 217 7,100 48 Climbing Chicago Center
Fri 08:30:32 PM 41.9397 -84.7444 117° Southeast 186 214 7,100 48 Level Chicago Center
Fri 08:31:34 PM 41.9050 -84.6728 123° Southeast 189 217 7,200 48 Climbing Chicago Center
Fri 08:32:36 PM 41.8686 -84.6211 133° Southeast 189 217 7,200 -97 Level Chicago Center
Fri 08:33:38 PM 41.8372 -84.5628 126° Southeast 191 220 7,000 -48 Descending Chicago Center
Fri 08:34:40 PM 41.8158 -84.4972 114° Southeast 192 221 7,100 97 Climbing Chicago Center
Fri 08:35:42 PM 41.8025 -84.4283 105° East 193 222 7,200  Climbing Chicago Center
Fri 08:36:44 PM 41.7856 -84.3608 109° East 192 221 7,100 -48 Descending Chicago Center
Fri 08:37:46 PM 41.7519 -84.2878 122° Southeast 191 220 7,100  Level Chicago Center
Fri 08:38:48 PM 41.7453 -84.2169 97° East 192 221 7,100 48 Level Chicago Center
Fri 08:39:51 PM 41.7381 -84.1486 98° East 189 217 7,200 48 Climbing Chicago Center
Fri 08:40:53 PM 41.7275 -84.0792 101° East 189 217 7,200  Level Chicago Center

Login

Don't have an account? Register now (free) for customized features, flight alerts, and more!